Skip Navigation Links Skip Navigation Links

Current Weather

Rock Co, Janesville, Wis.

For information only: do not use for flight planning or navigation.
Latest weather
Observation time Friday, February 28, 2020 5:45 AM CST
Local time Friday, February 28, 2020 6:42 AM CST
Flight conditions Visual Meteorological Conditions
Winds
Wind direction West-Northwest (290°)
Wind speed 6 mph
Visibility 10 mi.
Sky condition
Ceiling 5,500 ft. overcast
Cloud layer scattered clouds 4,500 ft.
Cloud layer overcast 5,500 ft.
Temperature 18°F
Dewpoint 10°F
Altimeter 30.02 in.Hg
Derived measurements
Relative humidity 73%
Wind chill 9°F
Density altitude -2127 ft.
Remarks
First observation of the day.
METAR KJVL 281145Z 29005KT 10SM SCT045 OVC055 M08/M12 A3002 RMK FIRST

Settings

Location code

InnerDrive.Weather 4.0.6770.0 Release CLR 4.0.30319.42000
Copyright ©2018 Inner Drive Technology. All rights reserved. Portions Copyright ©1986-2018 David Braverman.

Find weather

Site navigation


Skip Navigation Links

Place info

Page info

PayPal - The safer, easier way to pay online!

Return home.

Copyright ©2020 Inner Drive Technology. Purveyors of fine, hand-crafted computer software. Page printed 2020-02-28T12:42:01 UTC.